Time,TemperatureF,DewpointF,PressureIn,WindDirection,WindDirectionDegrees,WindSpeedMPH,WindSpeedGustMPH,Humidity,HourlyPrecipIn,Conditions,Clouds,dailyrainin,SoftwareType,DateUTC
2013-03-20 00:03:00,29.0,20.0,29.95,WNW,286,5.0,11.0,69,0.00,,,0.01,,2013-03-20 04:03:00,
2013-03-20 00:12:00,29.0,20.0,29.95,WNW,286,5.0,11.0,69,0.00,,,0.01,,2013-03-20 04:12:00,
2013-03-20 00:23:00,29.0,20.0,29.95,WSW,256,6.0,12.0,70,0.00,,,0.01,,2013-03-20 04:23:00,
2013-03-20 00:32:00,28.0,20.0,29.95,West,269,4.0,10.0,71,0.00,,,0.01,,2013-03-20 04:32:00,
2013-03-20 00:43:00,28.0,20.0,29.95,West,269,4.0,10.0,71,0.00,,,0.01,,2013-03-20 04:43:00,
2013-03-20 00:53:00,28.0,20.0,29.95,West,273,5.0,11.0,71,0.00,,,0.01,,2013-03-20 04:53:00,
2013-03-20 01:03:00,28.0,20.0,29.95,WSW,241,5.0,10.0,72,0.00,,,0.01,,2013-03-20 05:03:00,
2013-03-20 01:12:00,28.0,20.0,29.94,WSW,257,3.0,10.0,72,0.00,,,0.01,,2013-03-20 05:12:00,
2013-03-20 01:23:00,28.0,20.0,29.94,WSW,257,3.0,10.0,72,0.00,,,0.01,,2013-03-20 05:23:00,
2013-03-20 01:32:00,28.0,20.0,29.94,WSW,257,3.0,10.0,72,0.00,,,0.01,,2013-03-20 05:32:00,
2013-03-20 01:42:00,28.0,20.0,29.94,WSW,257,3.0,10.0,72,0.00,,,0.01,,2013-03-20 05:42:00,
2013-03-20 01:53:00,28.0,20.0,29.94,West,269,6.0,11.0,73,0.00,,,0.01,,2013-03-20 05:53:00,
2013-03-20 02:02:00,27.0,20.0,29.94,West,267,5.0,11.0,73,0.00,,,0.01,,2013-03-20 06:02:00,
2013-03-20 02:13:00,27.0,20.0,29.94,West,267,5.0,11.0,73,0.00,,,0.01,,2013-03-20 06:13:00,
2013-03-20 02:22:00,27.0,20.0,29.94,West,271,7.0,12.0,73,0.00,,,0.01,,2013-03-20 06:22:00,
2013-03-20 02:32:00,27.0,20.0,29.94,WSW,251,5.0,12.0,73,0.00,,,0.01,,2013-03-20 06:32:00,
2013-03-20 02:42:00,27.0,20.0,29.94,WSW,251,5.0,12.0,73,0.00,,,0.01,,2013-03-20 06:42:00,
2013-03-20 02:53:00,27.0,20.0,29.94,West,271,5.0,12.0,74,0.00,,,0.00,,2013-03-20 06:53:00,
2013-03-20 03:02:00,27.0,20.0,29.94,West,260,5.0,10.0,74,0.00,,,0.00,,2013-03-20 07:02:00,
2013-03-20 03:12:00,27.0,20.0,29.94,West,260,5.0,10.0,74,0.00,,,0.00,,2013-03-20 07:12:00,
2013-03-20 03:22:00,27.0,20.0,29.94,SW,229,4.0,9.0,74,0.00,,,0.00,,2013-03-20 07:22:00,
2013-03-20 03:32:00,27.0,20.0,29.94,SW,229,4.0,9.0,74,0.00,,,0.00,,2013-03-20 07:32:00,
2013-03-20 03:42:00,27.0,20.0,29.94,SW,229,4.0,9.0,74,0.00,,,0.00,,2013-03-20 07:42:00,
2013-03-20 03:52:00,27.0,20.0,29.94,WSW,238,4.0,9.0,75,0.00,,,0.00,,2013-03-20 07:52:00,
2013-03-20 04:02:00,27.0,20.0,29.94,WNW,295,5.0,10.0,75,0.00,,,0.00,,2013-03-20 08:02:00,
2013-03-20 04:13:00,27.0,20.0,29.94,WNW,295,5.0,10.0,75,0.00,,,0.00,,2013-03-20 08:13:00,
2013-03-20 04:22:00,26.0,19.0,29.94,West,261,3.0,12.0,75,0.00,,,0.00,,2013-03-20 08:22:00,
2013-03-20 04:32:00,26.0,19.0,29.93,West,261,6.0,10.0,76,0.00,,,0.00,,2013-03-20 08:32:00,
2013-03-20 04:42:00,26.0,19.0,29.93,West,261,6.0,10.0,76,0.00,,,0.00,,2013-03-20 08:42:00,
2013-03-20 04:52:00,26.0,19.0,29.93,West,260,6.0,12.0,76,0.00,,,0.00,,2013-03-20 08:52:00,
2013-03-20 05:02:00,26.0,19.0,29.93,WSW,246,5.0,12.0,76,0.00,,,0.00,,2013-03-20 09:02:00,
2013-03-20 05:12:00,26.0,19.0,29.93,WSW,246,5.0,12.0,76,0.00,,,0.00,,2013-03-20 09:12:00,
2013-03-20 05:22:00,26.0,20.0,29.93,WSW,257,5.0,11.0,77,0.00,,,0.00,,2013-03-20 09:22:00,
2013-03-20 05:33:00,26.0,19.0,29.93,WSW,240,3.0,10.0,76,0.00,,,0.00,,2013-03-20 09:33:00,
2013-03-20 05:43:00,26.0,19.0,29.93,WSW,240,3.0,10.0,76,0.00,,,0.00,,2013-03-20 09:43:00,
2013-03-20 05:53:00,26.0,19.0,29.92,WSW,240,2.0,11.0,76,0.00,,,0.00,,2013-03-20 09:53:00,
2013-03-20 06:03:00,25.0,19.0,29.92,SW,223,5.0,9.0,77,0.00,,,0.00,,2013-03-20 10:03:00,
2013-03-20 06:13:00,25.0,19.0,29.92,SW,223,5.0,9.0,77,0.00,,,0.00,,2013-03-20 10:13:00,
2013-03-20 06:23:00,25.0,19.0,29.92,SW,234,5.0,12.0,77,0.00,,,0.00,,2013-03-20 10:23:00,
2013-03-20 06:33:00,25.0,19.0,29.92,SW,234,5.0,12.0,77,0.00,,,0.00,,2013-03-20 10:33:00,
2013-03-20 06:42:00,25.0,19.0,29.92,SW,234,5.0,12.0,77,0.00,,,0.00,,2013-03-20 10:42:00,
2013-03-20 06:53:00,25.0,19.0,29.92,SW,234,5.0,12.0,77,0.00,,,0.00,,2013-03-20 10:53:00,
2013-03-20 07:03:00,25.0,19.0,29.94,West,261,7.0,11.0,78,0.00,,,0.00,,2013-03-20 11:03:00,
2013-03-20 07:12:00,25.0,19.0,29.94,West,261,7.0,11.0,78,0.00,,,0.00,,2013-03-20 11:12:00,
2013-03-20 07:22:00,26.0,20.0,29.93,WSW,257,7.0,11.0,77,0.00,,,0.00,,2013-03-20 11:22:00,
2013-03-20 07:32:00,26.0,19.0,29.93,WSW,237,6.0,11.0,76,0.00,,,0.00,,2013-03-20 11:32:00,
2013-03-20 07:42:00,26.0,19.0,29.93,WSW,237,6.0,11.0,76,0.00,,,0.00,,2013-03-20 11:42:00,
2013-03-20 07:52:00,26.0,19.0,29.92,WSW,254,7.0,14.0,75,0.00,,,0.00,,2013-03-20 11:52:00,
2013-03-20 08:02:00,26.0,19.0,29.92,WSW,254,7.0,14.0,75,0.00,,,0.00,,2013-03-20 12:02:00,
2013-03-20 08:12:00,26.0,19.0,29.92,WSW,254,7.0,14.0,75,0.00,,,0.00,,2013-03-20 12:12:00,
2013-03-20 08:22:00,26.0,19.0,29.93,West,271,8.0,13.0,75,0.00,,,0.00,,2013-03-20 12:22:00,
2013-03-20 08:32:00,26.0,19.0,29.93,West,271,8.0,13.0,75,0.00,,,0.00,,2013-03-20 12:32:00,
2013-03-20 08:42:00,26.0,19.0,29.93,West,271,8.0,13.0,75,0.00,,,0.00,,2013-03-20 12:42:00,
2013-03-20 08:52:00,26.0,19.0,29.93,West,259,5.0,13.0,74,0.00,,,0.00,,2013-03-20 12:52:00,
2013-03-20 09:03:00,27.0,20.0,29.93,WSW,240,8.0,16.0,74,0.00,,,0.00,,2013-03-20 13:03:00,
2013-03-20 09:12:00,27.0,20.0,29.93,WSW,240,8.0,16.0,74,0.00,,,0.00,,2013-03-20 13:12:00,
2013-03-20 09:22:00,28.0,20.0,29.93,WSW,238,5.0,11.0,73,0.00,,,0.00,,2013-03-20 13:22:00,
2013-03-20 09:32:00,30.0,21.0,29.92,WSW,250,11.0,18.0,69,0.00,,,0.00,,2013-03-20 13:32:00,
2013-03-20 09:42:00,30.0,21.0,29.92,WSW,250,11.0,18.0,69,0.00,,,0.00,,2013-03-20 13:42:00,
2013-03-20 09:52:00,30.0,20.0,29.93,WSW,253,14.0,20.0,67,0.00,,,0.00,,2013-03-20 13:52:00,
2013-03-20 10:03:00,30.0,20.0,29.93,WSW,253,14.0,20.0,67,0.00,,,0.00,,2013-03-20 14:03:00,
2013-03-20 10:12:00,30.0,20.0,29.93,WSW,253,14.0,20.0,67,0.00,,,0.00,,2013-03-20 14:12:00,
2013-03-20 10:23:00,29.0,19.0,29.93,West,267,10.0,15.0,67,0.00,,,0.00,,2013-03-20 14:23:00,
2013-03-20 10:33:00,29.0,19.0,29.93,West,267,10.0,15.0,67,0.00,,,0.00,,2013-03-20 14:33:00,
2013-03-20 10:43:00,29.0,19.0,29.93,West,267,10.0,15.0,67,0.00,,,0.00,,2013-03-20 14:43:00,
2013-03-20 10:53:00,28.0,18.0,29.93,WNW,284,11.0,17.0,66,0.00,,,0.00,,2013-03-20 14:53:00,
2013-03-20 11:02:00,29.0,19.0,29.93,West,269,7.0,15.0,67,0.00,,,0.00,,2013-03-20 15:02:00,
2013-03-20 11:12:00,32.0,20.0,29.93,WSW,254,6.0,21.0,61,0.00,,,0.00,,2013-03-20 15:12:00,
2013-03-20 11:22:00,32.0,20.0,29.93,WSW,254,6.0,21.0,61,0.00,,,0.00,,2013-03-20 15:22:00,
2013-03-20 11:33:00,31.0,18.0,29.93,West,267,11.0,25.0,58,0.00,,,0.00,,2013-03-20 15:33:00,
2013-03-20 11:43:00,31.0,18.0,29.93,West,267,11.0,25.0,58,0.00,,,0.00,,2013-03-20 15:43:00,
2013-03-20 11:53:00,30.0,17.0,29.92,West,266,8.0,21.0,57,0.00,,,0.00,,2013-03-20 15:53:00,
2013-03-20 12:03:00,30.0,17.0,29.92,West,281,8.0,15.0,59,0.00,,,0.00,,2013-03-20 16:03:00,
2013-03-20 12:13:00,30.0,17.0,29.92,West,281,8.0,15.0,59,0.00,,,0.00,,2013-03-20 16:13:00,
2013-03-20 12:23:00,30.0,17.0,29.92,WSW,250,12.0,15.0,59,0.00,,,0.00,,2013-03-20 16:23:00,
2013-03-20 12:33:00,30.0,18.0,29.92,WSW,257,7.0,18.0,61,0.00,,,0.00,,2013-03-20 16:33:00,
2013-03-20 12:43:00,30.0,18.0,29.92,WSW,257,7.0,18.0,61,0.00,,,0.00,,2013-03-20 16:43:00,
2013-03-20 12:53:00,31.0,18.0,29.91,NW,309,7.0,19.0,58,0.00,,,0.00,,2013-03-20 16:53:00,
2013-03-20 13:03:00,32.0,19.0,29.91,NW,318,8.0,18.0,57,0.00,,,0.00,,2013-03-20 17:03:00,
2013-03-20 13:12:00,32.0,19.0,29.91,NW,318,8.0,18.0,57,0.00,,,0.00,,2013-03-20 17:12:00,
2013-03-20 13:22:00,32.0,18.0,29.91,WSW,248,9.0,22.0,56,0.00,,,0.00,,2013-03-20 17:22:00,
2013-03-20 13:32:00,33.0,19.0,29.91,WSW,254,11.0,20.0,55,0.00,,,0.00,,2013-03-20 17:32:00,
2013-03-20 13:42:00,33.0,19.0,29.91,WSW,254,11.0,20.0,55,0.00,,,0.00,,2013-03-20 17:42:00,
2013-03-20 13:53:00,32.0,17.0,29.91,WNW,300,12.0,20.0,54,0.00,,,0.00,,2013-03-20 17:53:00,
2013-03-20 14:02:00,32.0,18.0,29.91,West,270,11.0,20.0,56,0.00,,,0.00,,2013-03-20 18:02:00,
2013-03-20 14:12:00,32.0,18.0,29.91,West,270,11.0,20.0,56,0.00,,,0.00,,2013-03-20 18:12:00,
2013-03-20 14:22:00,32.0,18.0,29.91,West,270,11.0,20.0,56,0.00,,,0.00,,2013-03-20 18:22:00,
2013-03-20 14:33:00,33.0,17.0,29.90,West,261,11.0,22.0,52,0.00,,,0.00,,2013-03-20 18:33:00,
2013-03-20 14:42:00,33.0,17.0,29.90,West,261,11.0,22.0,52,0.00,,,0.00,,2013-03-20 18:42:00,
2013-03-20 14:53:00,33.0,19.0,29.89,NW,306,14.0,20.0,55,0.00,,,0.00,,2013-03-20 18:53:00,
2013-03-20 15:02:00,33.0,19.0,29.89,West,264,7.0,19.0,55,0.00,,,0.00,,2013-03-20 19:02:00,
2013-03-20 15:12:00,33.0,19.0,29.89,West,264,7.0,19.0,55,0.00,,,0.00,,2013-03-20 19:12:00,
2013-03-20 15:22:00,33.0,18.0,29.89,West,261,10.0,24.0,53,0.00,,,0.00,,2013-03-20 19:22:00,
2013-03-20 15:32:00,32.0,18.0,29.89,WNW,288,4.0,20.0,56,0.00,,,0.00,,2013-03-20 19:32:00,
2013-03-20 15:42:00,32.0,18.0,29.89,WNW,288,4.0,20.0,56,0.00,,,0.00,,2013-03-20 19:42:00,
2013-03-20 15:52:00,32.0,17.0,29.88,West,271,11.0,21.0,54,0.00,,,0.00,,2013-03-20 19:52:00,
2013-03-20 16:02:00,32.0,18.0,29.88,WSW,252,7.0,14.0,55,0.00,,,0.00,,2013-03-20 20:02:00,
2013-03-20 16:13:00,32.0,18.0,29.88,WSW,252,7.0,14.0,55,0.00,,,0.00,,2013-03-20 20:13:00,
2013-03-20 16:22:00,32.0,18.0,29.88,West,271,6.0,24.0,56,0.00,,,0.00,,2013-03-20 20:22:00,
2013-03-20 16:32:00,32.0,18.0,29.88,WNW,294,11.0,24.0,55,0.00,,,0.00,,2013-03-20 20:32:00,
2013-03-20 16:42:00,32.0,18.0,29.88,WNW,294,11.0,24.0,55,0.00,,,0.00,,2013-03-20 20:42:00,
2013-03-20 16:52:00,31.0,18.0,29.88,NNW,342,7.0,17.0,58,0.00,,,0.00,,2013-03-20 20:52:00,
2013-03-20 17:02:00,31.0,18.0,29.88,West,279,11.0,22.0,57,0.00,,,0.00,,2013-03-20 21:02:00,
2013-03-20 17:12:00,31.0,18.0,29.88,West,279,11.0,22.0,57,0.00,,,0.00,,2013-03-20 21:12:00,
2013-03-20 17:22:00,31.0,18.0,29.88,NW,326,5.0,21.0,59,0.00,,,0.00,,2013-03-20 21:22:00,
2013-03-20 17:33:00,31.0,18.0,29.88,West,267,5.0,17.0,59,0.00,,,0.00,,2013-03-20 21:33:00,
2013-03-20 17:42:00,31.0,18.0,29.88,West,267,5.0,17.0,59,0.00,,,0.00,,2013-03-20 21:42:00,
2013-03-20 17:52:00,31.0,18.0,29.88,West,276,12.0,21.0,57,0.00,,,0.00,,2013-03-20 21:52:00,
2013-03-20 18:03:00,31.0,17.0,29.88,West,271,8.0,15.0,56,0.00,,,0.00,,2013-03-20 22:03:00,
2013-03-20 18:13:00,31.0,17.0,29.88,West,271,8.0,15.0,56,0.00,,,0.00,,2013-03-20 22:13:00,
2013-03-20 18:23:00,30.0,15.0,29.88,WNW,284,9.0,21.0,54,0.00,,,0.00,,2013-03-20 22:23:00,
2013-03-20 18:33:00,29.0,15.0,29.89,WNW,297,10.0,16.0,56,0.00,,,0.00,,2013-03-20 22:33:00,
2013-03-20 18:42:00,29.0,15.0,29.89,WNW,297,10.0,16.0,56,0.00,,,0.00,,2013-03-20 22:42:00,
2013-03-20 18:52:00,29.0,15.0,29.89,WNW,295,5.0,13.0,56,0.00,,,0.00,,2013-03-20 22:52:00,
2013-03-20 19:03:00,29.0,16.0,29.89,WNW,290,10.0,20.0,58,0.00,,,0.00,,2013-03-20 23:03:00,
2013-03-20 19:12:00,29.0,16.0,29.89,WNW,290,10.0,20.0,58,0.00,,,0.00,,2013-03-20 23:12:00,
2013-03-20 19:23:00,28.0,15.0,29.90,NW,308,9.0,21.0,58,0.00,,,0.00,,2013-03-20 23:23:00,
2013-03-20 19:32:00,28.0,15.0,29.90,NW,308,9.0,21.0,58,0.00,,,0.00,,2013-03-20 23:32:00,
2013-03-20 19:42:00,28.0,15.0,29.90,NW,308,9.0,21.0,58,0.00,,,0.00,,2013-03-20 23:42:00,
2013-03-20 19:53:00,28.0,15.0,29.90,NW,308,9.0,21.0,58,0.00,,,0.00,,2013-03-20 23:53:00,
2013-03-20 20:02:00,27.0,14.0,29.91,WNW,293,9.0,20.0,57,0.00,,,0.00,,2013-03-21 00:02:00,
2013-03-20 20:13:00,27.0,14.0,29.91,WNW,293,9.0,20.0,57,0.00,,,0.00,,2013-03-21 00:13:00,
2013-03-20 20:23:00,26.0,13.0,29.91,NW,317,7.0,17.0,57,0.00,,,0.00,,2013-03-21 00:23:00,
2013-03-20 20:33:00,25.0,12.0,29.92,NW,320,8.0,17.0,58,0.00,,,0.00,,2013-03-21 00:33:00,
2013-03-20 20:42:00,25.0,12.0,29.92,NW,320,8.0,17.0,58,0.00,,,0.00,,2013-03-21 00:42:00,
2013-03-20 20:53:00,25.0,13.0,29.92,NW,311,9.0,17.0,60,0.00,,,0.00,,2013-03-21 00:53:00,
2013-03-20 21:02:00,24.0,13.0,29.92,WNW,302,9.0,15.0,61,0.00,,,0.00,,2013-03-21 01:02:00,
2013-03-20 21:12:00,24.0,13.0,29.92,WNW,302,9.0,15.0,61,0.00,,,0.00,,2013-03-21 01:12:00,
2013-03-20 21:22:00,24.0,13.0,29.93,WSW,252,5.0,12.0,62,0.00,,,0.00,,2013-03-21 01:22:00,
2013-03-20 21:33:00,23.0,12.0,29.93,NW,316,9.0,16.0,63,0.00,,,0.00,,2013-03-21 01:33:00,
2013-03-20 21:42:00,23.0,12.0,29.93,NW,316,9.0,16.0,63,0.00,,,0.00,,2013-03-21 01:42:00,
2013-03-20 21:52:00,23.0,12.0,29.93,NW,324,6.0,14.0,63,0.00,,,0.00,,2013-03-21 01:52:00,
2013-03-20 22:02:00,23.0,12.0,29.93,WNW,285,5.0,18.0,62,0.00,,,0.00,,2013-03-21 02:02:00,
2013-03-20 22:12:00,23.0,12.0,29.93,WNW,285,5.0,18.0,62,0.00,,,0.00,,2013-03-21 02:12:00,
2013-03-20 22:22:00,22.0,11.0,29.93,WNW,303,4.0,11.0,62,0.00,,,0.00,,2013-03-21 02:22:00,
2013-03-20 22:33:00,22.0,11.0,29.93,NW,310,5.0,12.0,63,0.00,,,0.00,,2013-03-21 02:33:00,
2013-03-20 22:42:00,22.0,11.0,29.93,NW,310,5.0,12.0,63,0.00,,,0.00,,2013-03-21 02:42:00,
2013-03-20 22:52:00,22.0,11.0,29.93,NW,310,5.0,12.0,63,0.00,,,0.00,,2013-03-21 02:52:00,
2013-03-20 23:02:00,21.0,13.0,29.93,WNW,294,7.0,12.0,70,0.00,,,0.00,,2013-03-21 03:02:00,
2013-03-20 23:12:00,21.0,13.0,29.93,WNW,294,7.0,12.0,70,0.00,,,0.00,,2013-03-21 03:12:00,
2013-03-20 23:22:00,21.0,12.0,29.93,NW,323,6.0,13.0,69,0.00,,,0.00,,2013-03-21 03:22:00,
2013-03-20 23:33:00,20.0,12.0,29.93,NW,309,4.0,11.0,70,0.00,,,0.00,,2013-03-21 03:33:00,
2013-03-20 23:43:00,20.0,12.0,29.93,NW,309,4.0,11.0,70,0.00,,,0.00,,2013-03-21 03:43:00,
2013-03-20 23:53:00,20.0,12.0,29.93,West,272,4.0,11.0,71,0.00,,,0.00,,2013-03-21 03:53:00,